Time;durP1;ratioP1;P1;durP2;ratioP2;P2;SDS_P1;SDS_P2;PMS_P1;PMS_P2;Temp;Humidity;BMP_temperature;BMP_pressure;BME280_temperature;BME280_humidity;BME280_pressure;Samples;Min_cycle;Max_cycle;Signal;HPM_P1;HPM_P2
2022/03/16 00:02:03;;;;;;;45.67;36.60;;;6.20;99.90;;;4.78;98.20;98648.00;5014133;28;20448;-70
2022/03/16 00:04:30;;;;;;;45.10;34.60;;;6.20;99.90;;;4.75;98.31;98656.34;5015957;28;20919;-68
2022/03/16 00:06:58;;;;;;;43.40;34.67;;;6.20;99.90;;;4.77;97.76;98662.38;5015607;28;20929;-69
2022/03/16 00:09:25;;;;;;;47.53;35.90;;;6.20;99.90;;;4.80;98.44;98656.72;5015233;28;21048;-69
2022/03/16 00:11:53;;;;;;;49.30;35.00;;;6.20;99.90;;;4.81;97.96;98657.53;5031182;28;20801;-69
2022/03/16 00:14:20;;;;;;;42.13;33.23;;;6.20;99.90;;;4.78;98.68;98664.06;5030423;28;20530;-68
2022/03/16 00:16:47;;;;;;;44.93;34.13;;;6.20;99.90;;;4.89;98.50;98670.97;5030383;28;20567;-69
2022/03/16 00:19:13;;;;;;;46.60;33.63;;;6.20;99.90;;;4.79;98.28;98664.88;5015985;28;20559;-69
2022/03/16 00:21:40;;;;;;;42.50;34.53;;;6.20;99.90;;;4.72;98.48;98672.72;5015838;28;20538;-70
2022/03/16 00:24:10;;;;;;;43.53;34.40;;;6.10;99.90;;;4.66;98.92;98676.88;5015364;28;20501;-70
2022/03/16 00:26:37;;;;;;;46.13;34.33;;;6.10;99.90;;;4.78;99.45;98669.41;5015336;28;20458;-70
2022/03/16 00:29:04;;;;;;;43.47;33.60;;;6.10;99.90;;;4.90;98.86;98674.47;5015341;28;20471;-70
2022/03/16 00:31:32;;;;;;;47.63;34.77;;;6.20;99.90;;;5.00;98.03;98674.31;5014393;28;20529;-69
2022/03/16 00:33:59;;;;;;;45.20;35.00;;;6.30;99.90;;;4.74;98.14;98676.06;5015178;28;20933;-70
2022/03/16 00:36:26;;;;;;;38.83;32.23;;;6.20;99.90;;;4.88;98.28;98673.78;5031052;28;20456;-69
2022/03/16 00:38:53;;;;;;;45.87;33.90;;;6.20;99.90;;;4.83;98.12;98679.63;5015387;28;20600;-70
2022/03/16 00:41:22;;;;;;;45.40;32.67;;;6.20;99.90;;;5.05;97.48;98678.19;5013662;28;20910;-69
2022/03/16 00:43:49;;;;;;;42.43;34.33;;;6.30;99.90;;;4.88;97.10;98680.00;5015393;28;20528;-68
2022/03/16 00:46:17;;;;;;;41.90;32.73;;;6.30;99.90;;;4.91;97.58;98676.13;5014869;28;20443;-69
2022/03/16 00:48:44;;;;;;;43.50;34.10;;;6.30;99.90;;;4.82;98.75;98676.13;5014015;28;20522;-69
2022/03/16 00:51:12;;;;;;;42.17;33.00;;;6.20;99.90;;;4.93;97.60;98682.19;5013978;28;20534;-70
2022/03/16 00:53:40;;;;;;;42.20;32.90;;;6.20;99.90;;;4.92;97.96;98683.16;5029576;28;20427;-69
2022/03/16 00:56:09;;;;;;;42.53;33.20;;;6.30;99.90;;;4.98;97.88;98682.53;5012867;28;20435;-70
2022/03/16 00:58:37;;;;;;;45.93;32.57;;;6.30;99.90;;;4.99;97.92;98681.53;5014696;28;20463;-69
2022/03/16 01:01:06;;;;;;;45.73;32.60;;;6.30;99.90;;;4.91;97.55;98673.44;5013391;28;20439;-69
2022/03/16 01:03:34;;;;;;;43.90;32.07;;;6.30;99.90;;;4.91;97.34;98678.81;5015352;28;20538;-69
2022/03/16 01:06:01;;;;;;;46.43;36.47;;;6.30;99.90;;;4.92;97.67;98677.81;5014812;28;20447;-69
2022/03/16 01:08:29;;;;;;;49.23;36.67;;;6.30;99.90;;;4.86;97.88;98683.81;5014598;28;20508;-69
2022/03/16 01:10:56;;;;;;;48.27;38.53;;;6.20;99.90;;;4.94;97.73;98673.16;5014426;28;20470;-70
2022/03/16 01:13:23;;;;;;;49.17;36.93;;;6.30;99.90;;;4.89;97.86;98676.31;5018505;28;20494;-69
2022/03/16 01:15:52;;;;;;;45.87;35.60;;;6.30;99.90;;;4.81;98.09;98671.78;5021381;28;20891;-70
2022/03/16 01:18:19;;;;;;;42.83;34.07;;;6.20;99.90;;;4.88;98.32;98684.50;5021493;28;20446;-68
2022/03/16 01:20:45;;;;;;;44.03;35.20;;;6.20;99.90;;;4.74;98.39;98673.41;5019074;28;20439;-67
2022/03/16 01:23:12;;;;;;;48.43;37.20;;;6.10;99.90;;;4.88;98.55;98680.00;5033696;28;20482;-69
2022/03/16 01:25:39;;;;;;;42.10;33.63;;;6.20;99.90;;;4.67;98.60;98675.88;5015889;28;20997;-68
2022/03/16 01:28:06;;;;;;;45.20;33.77;;;6.10;99.90;;;4.78;99.93;98688.16;5014438;28;20542;-68
2022/03/16 01:30:33;;;;;;;44.07;33.70;;;6.10;99.90;;;4.80;98.61;98683.47;5014073;28;20524;-69
2022/03/16 01:33:02;;;;;;;41.43;32.07;;;6.10;99.90;;;4.78;97.88;98682.81;5013611;28;20435;-68
2022/03/16 01:35:29;;;;;;;42.70;34.87;;;6.10;99.90;;;4.71;98.27;98679.09;5014170;28;20442;-68
2022/03/16 01:37:56;;;;;;;41.67;33.27;;;6.10;99.90;;;4.58;99.25;98684.91;5013634;28;20435;-69
2022/03/16 01:40:23;;;;;;;42.40;34.23;;;6.00;99.90;;;4.76;99.09;98687.47;5029264;28;20444;-69
2022/03/16 01:42:50;;;;;;;46.97;34.30;;;6.10;99.90;;;4.77;98.13;98683.78;5029869;28;20447;-70
2022/03/16 01:45:17;;;;;;;39.80;33.07;;;6.10;99.90;;;4.84;98.66;98683.97;5013628;28;20435;-69
2022/03/16 01:47:44;;;;;;;46.30;34.40;;;6.10;99.90;;;4.94;97.40;98686.53;5014166;28;20470;-69
2022/03/16 01:50:12;;;;;;;43.33;33.60;;;6.30;99.90;;;4.85;98.07;98684.81;5028945;28;20461;-68
2022/03/16 01:52:41;;;;;;;45.93;34.37;;;6.20;99.90;;;4.72;98.93;98696.81;5014057;28;20501;-68
2022/03/16 01:55:09;;;;;;;45.80;35.70;;;6.10;99.90;;;4.91;98.33;98684.16;5013479;28;20996;-68
2022/03/16 01:57:40;;;;;;;48.53;35.80;;;6.20;99.90;;;4.99;97.82;98681.53;5012180;28;20465;-69
2022/03/16 02:00:09;;;;;;;47.53;34.93;;;6.30;99.90;;;5.00;97.86;98683.19;5012800;28;20522;-68
2022/03/16 02:02:36;;;;;;;44.07;34.53;;;6.30;99.90;;;4.92;97.48;98677.81;5013634;28;20980;-68
2022/03/16 02:05:04;;;;;;;48.13;34.93;;;6.30;99.90;;;4.97;97.49;98688.88;5028624;28;20996;-69
2022/03/16 02:07:33;;;;;;;45.87;35.23;;;6.30;99.90;;;4.89;98.90;98692.38;5012803;28;20437;-70
2022/03/16 02:10:01;;;;;;;44.67;34.97;;;6.30;99.90;;;4.77;98.36;98683.78;5013594;28;20471;-68
2022/03/16 02:12:28;;;;;;;49.40;38.40;;;6.30;99.90;;;4.79;99.81;98703.22;5013627;28;20482;-68
2022/03/16 02:14:55;;;;;;;49.80;36.23;;;6.20;99.90;;;4.78;99.99;98698.03;5027437;28;20876;-68
2022/03/16 02:17:22;;;;;;;49.67;37.00;;;6.10;99.90;;;4.81;99.50;98703.91;5012378;28;21001;-68
2022/03/16 02:19:49;;;;;;;53.30;39.63;;;6.20;99.90;;;4.60;100.00;98703.47;5013539;28;20467;-68
2022/03/16 02:22:19;;;;;;;51.77;37.60;;;6.00;99.90;;;4.60;100.00;98703.47;5013408;28;20486;-69
2022/03/16 02:24:47;;;;;;;52.20;37.03;;;6.00;99.90;;;4.57;100.00;98693.06;5013364;28;20443;-69
2022/03/16 02:27:14;;;;;;;49.67;37.97;;;6.00;99.90;;;4.46;100.00;98695.03;5011907;28;20448;-69
2022/03/16 02:29:41;;;;;;;55.00;38.13;;;5.90;99.90;;;4.33;100.00;98697.31;5013962;28;20463;-70
2022/03/16 02:32:09;;;;;;;51.90;37.73;;;5.80;99.90;;;4.41;100.00;98704.56;5028586;28;20538;-70
2022/03/16 02:34:36;;;;;;;49.87;37.63;;;5.80;99.90;;;4.43;100.00;98698.03;5013493;28;20461;-69
2022/03/16 02:37:04;;;;;;;53.53;38.30;;;5.70;99.90;;;4.39;100.00;98707.38;5011947;28;20497;-70
2022/03/16 02:39:31;;;;;;;52.50;37.47;;;5.80;99.90;;;4.14;100.00;98648.38;5012197;28;20816;-69
2022/03/16 02:41:59;;;;;;;53.40;39.17;;;5.80;99.90;;;4.42;100.00;98708.91;5029151;28;20482;-69
2022/03/16 02:44:27;;;;;;;59.40;43.30;;;5.80;99.90;;;4.41;100.00;98705.38;5011930;28;20546;-69
2022/03/16 02:46:54;;;;;;;49.13;38.07;;;5.80;99.90;;;4.72;100.00;98718.25;5013202;28;20478;-68
2022/03/16 02:49:21;;;;;;;55.97;42.77;;;5.90;99.90;;;4.69;99.72;98713.22;5013337;28;20479;-68
2022/03/16 02:51:48;;;;;;;52.07;40.50;;;6.00;99.90;;;4.64;100.00;98716.38;5013865;28;20474;-69
2022/03/16 02:54:15;;;;;;;53.63;40.63;;;6.00;99.90;;;4.50;99.54;98725.00;5013064;28;20526;-69
2022/03/16 02:56:42;;;;;;;54.37;41.23;;;5.90;99.90;;;4.45;99.84;98712.09;5011524;28;20475;-70
2022/03/16 02:59:10;;;;;;;62.53;44.00;;;5.90;99.90;;;4.57;99.01;98723.38;5013076;28;20439;-68
2022/03/16 03:01:37;;;;;;;60.97;42.27;;;5.90;99.90;;;4.65;99.01;98727.94;5013644;28;20436;-69
2022/03/16 03:04:05;;;;;;;62.57;45.37;;;6.00;99.90;;;4.59;99.15;98732.06;5012956;28;20506;-68
2022/03/16 03:06:32;;;;;;;62.73;43.73;;;6.00;99.90;;;4.49;99.31;98708.09;5013955;28;20545;-68
2022/03/16 03:08:59;;;;;;;59.23;43.03;;;6.00;99.90;;;4.79;98.21;98734.50;5029123;28;20436;-68
2022/03/16 03:11:27;;;;;;;53.03;39.87;;;6.10;99.90;;;4.42;98.28;98707.06;5012402;28;20530;-68
2022/03/16 03:13:54;;;;;;;44.03;35.20;;;6.00;99.90;;;4.61;99.15;98731.91;5011941;28;20443;-69
2022/03/16 03:16:23;;;;;;;42.87;32.60;;;5.90;99.90;;;4.68;97.81;98743.66;5012985;28;20917;-68
2022/03/16 03:18:50;;;;;;;39.13;29.90;;;6.00;99.90;;;4.50;97.40;98746.41;5012739;28;20553;-67
2022/03/16 03:21:17;;;;;;;44.57;32.83;;;5.90;99.90;;;4.30;97.99;98756.47;5015335;28;20936;-67
2022/03/16 03:23:46;;;;;;;45.57;34.60;;;5.70;99.90;;;4.36;99.05;98745.97;5031961;28;20439;-68
2022/03/16 03:26:13;;;;;;;52.70;39.97;;;5.70;99.90;;;4.30;99.77;98753.78;5016180;28;20439;-68
2022/03/16 03:28:40;;;;;;;49.47;36.23;;;5.60;99.90;;;4.48;99.21;98759.09;5031712;28;20445;-68
2022/03/16 03:31:07;;;;;;;49.87;35.90;;;5.70;99.90;;;4.45;99.40;98760.25;5016792;28;20467;-68
2022/03/16 03:33:35;;;;;;;57.73;38.07;;;5.70;99.90;;;4.28;100.00;98762.00;5016518;28;20434;-68
2022/03/16 03:36:03;;;;;;;55.30;39.00;;;5.60;99.90;;;4.38;99.72;98764.56;5016187;28;20478;-69
2022/03/16 03:38:30;;;;;;;58.20;41.53;;;5.70;99.90;;;4.19;100.00;98754.91;5031078;28;20444;-68
2022/03/16 03:40:57;;;;;;;54.13;38.73;;;5.60;99.90;;;4.02;100.00;98756.59;5014935;28;20494;-68
2022/03/16 03:43:24;;;;;;;53.93;38.60;;;5.50;99.90;;;3.85;100.00;98759.13;5016086;28;20930;-69
2022/03/16 03:45:50;;;;;;;55.13;37.43;;;5.30;99.90;;;3.91;100.00;98763.88;5015016;28;20859;-69
2022/03/16 03:48:17;;;;;;;54.10;37.83;;;5.20;99.90;;;3.73;100.00;98771.09;5016288;28;20496;-69
2022/03/16 03:50:46;;;;;;;54.07;38.17;;;5.10;99.90;;;3.64;100.00;98770.13;5016087;28;20470;-68
2022/03/16 03:53:13;;;;;;;55.63;40.13;;;5.00;99.90;;;3.56;100.00;98775.41;5014489;28;20700;-67
2022/03/16 03:55:40;;;;;;;64.20;43.70;;;5.00;99.90;;;3.49;100.00;98770.69;5014550;28;20443;-68
2022/03/16 03:58:07;;;;;;;57.37;40.50;;;4.90;99.90;;;3.34;100.00;98767.69;5030914;28;20968;-68
2022/03/16 04:00:34;;;;;;;67.47;45.90;;;4.70;99.90;;;3.46;100.00;98770.97;5030762;28;21040;-68
2022/03/16 04:03:01;;;;;;;64.23;44.60;;;4.80;99.90;;;3.53;100.00;98781.91;5016302;28;20505;-68
2022/03/16 04:05:28;;;;;;;66.27;45.27;;;4.80;99.90;;;3.56;100.00;98786.94;5014415;28;20502;-68
2022/03/16 04:07:56;;;;;;;69.77;46.23;;;4.90;99.90;;;3.54;100.00;98788.91;5014019;28;20528;-68
2022/03/16 04:10:24;;;;;;;63.00;42.70;;;4.90;99.90;;;3.81;100.00;98798.72;5015847;28;20465;-68
2022/03/16 04:12:51;;;;;;;57.30;40.23;;;5.10;99.90;;;3.93;100.00;98799.31;5015768;28;20505;-68
2022/03/16 04:15:20;;;;;;;58.63;40.00;;;5.20;99.90;;;3.87;100.00;98807.13;5015938;28;20436;-69
2022/03/16 04:17:47;;;;;;;56.93;39.57;;;5.20;99.90;;;3.78;100.00;98784.81;5014183;28;20443;-68
2022/03/16 04:20:14;;;;;;;66.17;43.27;;;5.20;99.90;;;3.83;100.00;98806.56;5015682;28;20490;-68
2022/03/16 04:22:41;;;;;;;59.63;40.60;;;5.20;99.90;;;3.65;100.00;98799.41;5015903;28;20523;-68
2022/03/16 04:25:10;;;;;;;58.47;40.97;;;5.10;99.90;;;3.69;100.00;98795.41;5015926;28;20540;-68
2022/03/16 04:27:37;;;;;;;59.30;40.23;;;5.10;99.90;;;3.79;100.00;98805.22;5015599;28;20549;-69
2022/03/16 04:30:06;;;;;;;54.57;39.43;;;5.10;99.90;;;3.78;100.00;98803.53;5014488;28;20962;-68
2022/03/16 04:32:33;;;;;;;58.10;40.07;;;5.20;99.90;;;3.76;100.00;98806.34;5015743;28;20891;-68
2022/03/16 04:35:00;;;;;;;58.93;39.23;;;5.10;99.90;;;3.69;100.00;98803.44;5014993;28;20467;-68
2022/03/16 04:37:27;;;;;;;56.47;39.57;;;5.10;99.90;;;3.81;100.00;98806.75;5013896;28;20443;-68
2022/03/16 04:39:54;;;;;;;56.00;40.50;;;5.20;99.90;;;3.72;100.00;98810.31;5030496;28;20543;-68
2022/03/16 04:42:22;;;;;;;49.57;37.30;;;5.10;99.90;;;3.66;100.00;98814.44;5030231;28;20501;-69
2022/03/16 04:44:50;;;;;;;52.57;37.97;;;5.10;99.90;;;3.36;100.00;98773.72;5015134;28;20505;-69
2022/03/16 04:47:17;;;;;;;51.90;37.43;;;5.00;99.90;;;3.44;100.00;98804.19;5029890;28;20439;-69
2022/03/16 04:49:44;;;;;;;51.57;37.97;;;4.80;99.90;;;3.43;100.00;98802.53;5030039;28;20843;-69
2022/03/16 04:52:11;;;;;;;55.33;39.60;;;4.80;99.90;;;3.49;100.00;98801.91;5013581;28;20481;-69
2022/03/16 04:54:38;;;;;;;55.90;39.20;;;4.80;99.90;;;3.29;100.00;98812.72;5014887;28;20443;-69
2022/03/16 04:57:06;;;;;;;62.93;40.70;;;4.70;99.90;;;3.15;100.00;98819.38;5015264;28;20467;-70
2022/03/16 04:59:34;;;;;;;64.30;46.07;;;4.60;99.90;;;3.04;100.00;98809.72;5014639;28;20469;-69
2022/03/16 05:02:01;;;;;;;72.57;46.90;;;4.50;99.90;;;2.94;100.00;98811.59;5032293;28;20450;-69
2022/03/16 05:04:28;;;;;;;82.47;50.13;;;4.40;99.90;;;2.92;100.00;98816.25;5017091;28;20921;-69
2022/03/16 05:06:55;;;;;;;89.80;53.57;;;4.30;99.90;;;2.83;100.00;98805.47;5017518;28;20550;-68
2022/03/16 05:09:22;;;;;;;78.80;50.37;;;4.30;99.90;;;2.48;100.00;98766.94;5035669;28;20926;-67
2022/03/16 05:11:49;;;;;;;83.07;50.57;;;4.20;99.90;;;2.71;100.00;98819.13;5035606;28;20538;-68
2022/03/16 05:14:17;;;;;;;86.07;51.00;;;4.10;99.90;;;2.62;100.00;98820.84;5030231;28;20439;-69
2022/03/16 05:16:46;;;;;;;89.70;50.43;;;4.00;99.90;;;2.60;100.00;98830.81;5014290;28;20946;-69
2022/03/16 05:19:19;;;;;;;82.67;49.20;;;4.00;99.90;;;2.55;100.00;98826.75;5014451;28;20463;-68
2022/03/16 05:21:46;;;;;;;101.40;56.20;;;3.90;99.90;;;2.59;100.00;98837.13;5013156;28;20526;-69
2022/03/16 05:24:13;;;;;;;112.73;60.07;;;3.90;99.90;;;2.55;100.00;98821.44;5014583;28;20446;-68
2022/03/16 05:26:39;;;;;;;99.17;55.67;;;4.00;99.90;;;2.60;100.00;98839.69;5013921;28;20463;-68
2022/03/16 05:29:07;;;;;;;91.07;54.67;;;3.90;99.90;;;2.54;100.00;98854.44;5029205;28;20528;-68
2022/03/16 05:31:34;;;;;;;93.77;53.90;;;3.90;99.90;;;2.49;100.00;98869.19;5013766;28;20819;-69
2022/03/16 05:34:02;;;;;;;97.20;52.13;;;3.90;99.90;;;2.39;100.00;98863.88;5029311;28;21062;-69
2022/03/16 05:36:29;;;;;;;87.07;49.27;;;3.80;99.90;;;2.57;100.00;98865.78;5028843;28;20447;-68
2022/03/16 05:38:57;;;;;;;85.60;48.60;;;3.90;99.90;;;2.68;100.00;98873.66;5014642;28;20534;-81
2022/03/16 05:41:25;;;;;;;76.73;48.17;;;4.00;99.90;;;2.74;100.00;98862.38;5030630;28;20447;-81
2022/03/16 05:43:52;;;;;;;80.33;48.07;;;4.10;99.90;;;2.56;100.00;98867.59;5013971;28;20540;-81
2022/03/16 05:46:19;;;;;;;87.97;48.40;;;4.00;99.90;;;2.49;100.00;98851.34;5015028;28;20470;-81
2022/03/16 05:48:46;;;;;;;84.23;48.43;;;4.00;99.90;;;2.64;100.00;98875.75;5013044;28;20526;-79
2022/03/16 05:51:14;;;;;;;84.07;47.80;;;4.00;99.90;;;2.58;100.00;98872.81;5013311;28;20513;-78
2022/03/16 05:53:41;;;;;;;81.70;47.30;;;4.00;99.90;;;2.57;100.00;98869.28;5014050;28;20435;-77
2022/03/16 05:56:08;;;;;;;87.20;48.90;;;4.00;99.90;;;2.45;100.00;98851.78;5012771;28;20475;-75
2022/03/16 05:58:36;;;;;;;80.50;46.40;;;4.10;99.90;;;2.76;100.00;98886.28;5012364;28;20478;-70
2022/03/16 06:01:03;;;;;;;84.47;45.90;;;4.10;99.90;;;2.86;100.00;98888.91;5012110;28;20436;-70
2022/03/16 06:03:30;;;;;;;77.23;45.50;;;4.20;99.90;;;2.95;100.00;98896.03;5013600;28;20851;-71
2022/03/16 06:05:57;;;;;;;78.23;46.63;;;4.30;99.90;;;2.98;100.00;98893.09;5013892;28;20450;-71
2022/03/16 06:08:25;;;;;;;71.10;43.30;;;4.30;99.90;;;3.10;100.00;98907.94;5013286;28;20474;-71
2022/03/16 06:10:52;;;;;;;66.43;43.63;;;4.40;99.90;;;2.85;100.00;98873.88;5013161;28;20842;-71
2022/03/16 06:13:19;;;;;;;65.63;42.77;;;4.40;99.90;;;3.26;100.00;98914.50;5012526;28;20467;-71
2022/03/16 06:15:46;;;;;;;68.40;43.47;;;4.50;99.90;;;3.32;100.00;98915.72;5013674;28;20474;-74
2022/03/16 06:18:13;;;;;;;64.97;42.20;;;4.60;99.90;;;3.30;100.00;98915.91;5011818;28;20585;-71
2022/03/16 06:20:41;;;;;;;61.07;41.97;;;4.60;99.90;;;3.35;100.00;98912.78;5013456;28;20442;-70
2022/03/16 06:23:08;;;;;;;62.40;40.00;;;4.70;99.90;;;3.87;100.00;98922.09;5028439;28;20478;-71
2022/03/16 06:25:37;;;;;;;53.60;38.57;;;5.00;99.90;;;4.14;100.00;98918.53;5013764;28;20432;-72
2022/03/16 06:28:04;;;;;;;53.63;40.30;;;5.30;99.90;;;4.13;100.00;98916.84;5013247;28;20470;-72
2022/03/16 06:30:32;;;;;;;52.67;36.97;;;5.40;99.90;;;4.20;100.00;98914.41;5013339;28;20818;-71
2022/03/16 06:32:59;;;;;;;48.00;37.20;;;5.50;99.90;;;4.29;100.00;98916.16;5013070;28;20478;-72
2022/03/16 06:35:26;;;;;;;47.27;35.00;;;5.50;99.90;;;4.46;99.15;98927.84;5013189;28;20505;-72
2022/03/16 06:37:53;;;;;;;48.07;35.33;;;5.70;99.90;;;4.41;98.21;98934.69;5013529;28;20531;-69
2022/03/16 06:40:20;;;;;;;44.30;33.47;;;5.70;99.90;;;3.99;99.15;98888.78;5013213;28;20466;-69
2022/03/16 06:42:52;;;;;;;45.73;35.13;;;5.70;99.90;;;4.31;98.95;98929.38;5013436;28;20518;-69
2022/03/16 06:45:20;;;;;;;47.97;35.27;;;5.70;99.90;;;4.36;99.12;98938.63;5027663;28;20446;-68
2022/03/16 06:47:48;;;;;;;44.47;33.17;;;5.70;99.90;;;4.35;99.79;98933.44;5012511;28;20439;-69
2022/03/16 06:50:15;;;;;;;41.43;33.40;;;5.70;99.90;;;4.63;98.10;98933.38;5011495;28;20513;-68
2022/03/16 06:52:42;;;;;;;44.50;33.23;;;5.90;99.90;;;4.63;97.71;98936.03;5011309;28;20553;-69
2022/03/16 06:55:11;;;;;;;45.60;34.80;;;5.90;99.90;;;4.54;97.99;98935.97;5015967;28;20874;-69
2022/03/16 06:57:38;;;;;;;41.70;33.40;;;6.00;99.90;;;4.88;97.37;98938.91;5016865;28;20524;-68
2022/03/16 07:00:09;;;;;;;44.67;33.27;;;6.10;99.90;;;4.90;96.47;98934.22;5016558;28;20503;-70
2022/03/16 07:02:54;;;;;;;42.87;32.90;;;6.20;99.90;;;5.00;95.19;98943.00;5015287;28;20439;-74
2022/03/16 07:05:22;;;;;;;42.03;32.80;;;6.30;99.90;;;4.94;94.99;98903.47;5015466;28;20459;-72
2022/03/16 07:07:50;;;;;;;42.80;32.70;;;6.40;99.90;;;5.46;94.24;98947.28;5016346;28;20451;-71
2022/03/16 07:10:17;;;;;;;43.37;33.33;;;6.60;99.90;;;5.15;93.64;98950.47;5016231;28;20475;-72
2022/03/16 07:12:44;;;;;;;39.70;30.77;;;6.60;99.90;;;5.16;94.42;98944.09;5016461;28;20585;-72
2022/03/16 07:15:12;;;;;;;39.90;32.53;;;6.60;99.90;;;5.39;93.62;98939.06;5012395;28;20471;-71
2022/03/16 07:17:39;;;;;;;42.30;32.33;;;6.70;99.90;;;5.20;93.80;98945.47;5031959;28;20446;-75
2022/03/16 07:20:08;;;;;;;40.57;32.20;;;6.70;98.90;;;5.44;93.27;98920.63;5015396;28;20534;-71
2022/03/16 07:22:35;;;;;;;42.17;32.73;;;6.70;99.90;;;5.93;90.22;98936.09;5016218;28;20437;-71
2022/03/16 07:25:04;;;;;;;36.80;29.57;;;7.00;97.60;;;5.51;90.55;98932.41;5014643;28;21006;-71
2022/03/16 07:27:31;;;;;;;35.30;29.03;;;7.00;94.60;;;5.93;88.72;98930.72;5015865;28;20443;-73
2022/03/16 07:29:58;;;;;;;36.80;29.07;;;7.20;94.70;;;6.19;87.85;98940.56;5015879;28;20531;-72
2022/03/16 07:32:27;;;;;;;34.27;28.37;;;7.40;93.40;;;6.07;88.46;98936.50;5015528;28;20563;-72
2022/03/16 07:34:54;;;;;;;33.50;27.30;;;7.40;93.50;;;6.08;88.89;98933.66;5015636;28;20439;-72
2022/03/16 07:37:22;;;;;;;34.80;27.80;;;7.40;93.90;;;5.89;87.88;98945.47;5016405;28;20542;-72
2022/03/16 07:39:49;;;;;;;36.60;32.78;;;7.30;93.30;;;5.98;88.12;98934.75;5011568;28;20439;-69
2022/03/16 07:42:17;;;;;;;33.47;29.80;;;7.40;93.70;;;6.04;88.25;98936.84;5025829;28;20247;-70
2022/03/16 07:44:44;;;;;;;30.07;26.83;;;7.40;93.70;;;6.12;86.83;98946.75;5012712;28;20811;-72
2022/03/16 07:47:11;;;;;;;31.63;26.93;;;7.40;92.10;;;6.39;85.42;98940.25;5015806;28;20469;-70
2022/03/16 07:49:39;;;;;;;29.67;24.67;;;7.60;91.50;;;6.50;85.07;98948.00;5015677;28;20515;-70
2022/03/16 07:52:07;;;;;;;27.43;23.27;;;7.80;91.30;;;6.52;84.23;98943.28;5015293;28;20540;-70
2022/03/16 07:54:34;;;;;;;27.27;23.17;;;7.80;90.30;;;6.55;83.55;98952.00;5014328;28;20505;-71
2022/03/16 07:57:01;;;;;;;27.03;22.07;;;7.90;89.30;;;6.80;83.37;98952.84;5015938;28;20451;-72
2022/03/16 07:59:28;;;;;;;32.80;24.93;;;8.00;90.10;;;7.01;82.39;98944.28;5015066;28;20547;-71
2022/03/16 08:01:55;;;;;;;26.07;23.20;;;8.20;88.70;;;7.37;81.29;98941.22;5015495;28;20435;-70
2022/03/16 08:04:23;;;;;;;26.17;22.90;;;8.50;88.50;;;7.75;78.80;98940.56;5015268;28;20769;-71
2022/03/16 08:06:51;;;;;;;25.77;22.90;;;8.80;86.10;;;7.77;78.04;98943.06;5014200;28;20918;-71
2022/03/16 08:09:18;;;;;;;22.57;19.50;;;8.90;84.30;;;7.80;76.62;98940.88;5015317;28;20636;-71
2022/03/16 08:11:45;;;;;;;26.83;19.53;;;9.00;82.40;;;7.62;76.54;98951.06;5015808;28;20473;-70
2022/03/16 08:14:12;;;;;;;23.70;21.20;;;9.00;81.90;;;7.48;77.52;98950.75;5013333;28;20486;-71
2022/03/16 08:16:44;;;;;;;19.57;17.53;;;8.90;82.70;;;7.04;77.31;98846.38;5005364;28;20460;-71
2022/03/16 08:19:15;;;;;;;21.13;18.90;;;8.80;83.50;;;7.32;77.68;98951.63;5011479;28;20477;-70
2022/03/16 08:21:42;;;;;;;23.17;19.60;;;8.70;82.20;;;7.60;78.02;98943.16;5001534;28;20444;-70
2022/03/16 08:24:10;;;;;;;20.10;17.90;;;8.80;83.20;;;7.65;75.39;98946.13;5015244;28;20501;-71
2022/03/16 08:26:37;;;;;;;20.07;17.90;;;8.90;81.20;;;7.65;74.68;98948.00;5013653;28;20469;-70
2022/03/16 08:29:04;;;;;;;21.00;18.03;;;8.90;80.50;;;7.60;75.69;98953.91;5014650;28;20530;-70
2022/03/16 08:31:31;;;;;;;22.33;18.87;;;8.90;80.90;;;7.51;74.86;98950.41;5029804;28;20477;-71
2022/03/16 08:33:59;;;;;;;21.67;17.50;;;8.90;80.40;;;7.70;74.18;98948.31;5014740;28;20493;-71
2022/03/16 08:36:26;;;;;;;19.80;17.60;;;9.00;80.00;;;7.49;74.46;98948.88;5012847;28;20440;-70
2022/03/16 08:38:54;;;;;;;21.13;17.77;;;8.90;79.60;;;7.53;74.85;98952.94;5014420;28;20431;-71
2022/03/16 08:41:22;;;;;;;23.13;17.60;;;8.80;80.20;;;7.55;74.94;98950.91;5014591;28;20439;-70
2022/03/16 08:43:49;;;;;;;19.10;15.97;;;8.80;80.40;;;7.64;74.62;98949.84;5012101;28;20991;-71
2022/03/16 08:46:16;;;;;;;19.30;16.80;;;8.90;80.20;;;7.71;73.61;98943.78;5014721;28;20471;-71
2022/03/16 08:48:43;;;;;;;21.67;16.90;;;9.00;79.50;;;7.62;73.43;98940.28;5014812;28;20447;-71
2022/03/16 08:51:10;;;;;;;21.40;17.80;;;8.90;79.20;;;7.55;73.03;98950.91;5014653;28;20942;-71
2022/03/16 08:53:38;;;;;;;19.30;16.70;;;8.90;78.40;;;7.46;73.75;98946.56;5016184;28;20474;-70
2022/03/16 08:56:05;;;;;;;20.63;17.93;;;8.80;78.70;;;7.61;74.30;98958.25;5021747;28;20776;-71
2022/03/16 08:58:34;;;;;;;21.07;16.53;;;8.80;79.60;;;7.74;73.82;98968.50;5016542;28;20479;-71
2022/03/16 09:01:01;;;;;;;21.30;16.60;;;8.90;79.50;;;7.75;73.14;98950.50;5013196;28;20463;-71
2022/03/16 09:03:28;;;;;;;23.70;17.83;;;9.10;78.90;;;7.45;74.25;98969.06;5023762;28;20493;-71
2022/03/16 09:05:55;;;;;;;22.43;19.10;;;8.90;79.30;;;7.64;73.51;98959.78;5033858;28;20445;-73
2022/03/16 09:08:22;;;;;;;22.90;19.03;;;9.00;78.90;;;7.87;72.89;98959.84;5032851;28;20450;-71
2022/03/16 09:10:50;;;;;;;22.60;18.00;;;9.10;78.80;;;7.98;72.24;98949.72;5033935;28;20972;-71
2022/03/16 09:13:19;;;;;;;23.27;18.20;;;9.20;78.40;;;7.58;73.27;98958.63;5033763;28;20582;-72
2022/03/16 09:15:49;;;;;;;22.00;19.20;;;8.90;78.60;;;8.11;72.36;98958.03;5026421;28;20864;-70
2022/03/16 09:18:16;;;;;;;21.80;18.17;;;9.20;78.80;;;8.32;71.35;98952.03;5013892;28;20445;-70
2022/03/16 09:20:43;;;;;;;29.17;21.67;;;9.50;78.10;;;8.21;72.25;98955.97;5014544;28;20830;-71
2022/03/16 09:23:10;;;;;;;22.47;20.07;;;9.50;78.50;;;7.94;72.57;98955.44;5014632;28;20443;-72
2022/03/16 09:25:38;;;;;;;23.00;19.10;;;9.40;78.00;;;8.12;72.98;98948.13;5014267;28;20452;-71
2022/03/16 09:28:05;;;;;;;23.77;19.50;;;9.40;78.90;;;7.98;72.75;98949.72;5014186;28;20455;-71
2022/03/16 09:30:32;;;;;;;24.50;21.20;;;9.30;78.50;;;7.66;72.95;98955.06;5012318;28;20776;-71
2022/03/16 09:33:01;;;;;;;28.07;21.17;;;9.10;78.30;;;7.40;75.01;98956.13;5012439;28;20529;-71
2022/03/16 09:35:30;;;;;;;25.13;20.93;;;8.90;79.50;;;7.89;74.36;98957.00;5013244;28;20833;-72
2022/03/16 09:37:58;;;;;;;23.20;20.80;;;9.10;80.00;;;8.18;73.86;98956.34;5009512;28;20440;-73
2022/03/16 09:40:26;;;;;;;25.07;19.70;;;9.30;79.80;;;8.19;73.63;98952.63;5012562;28;20450;-71
2022/03/16 09:42:55;;;;;;;22.67;20.37;;;9.40;79.40;;;8.36;72.47;98963.31;5009758;28;20447;-71
2022/03/16 09:45:24;;;;;;;23.23;19.83;;;9.60;78.90;;;8.28;72.42;98957.97;5012697;28;20473;-70
2022/03/16 09:47:51;;;;;;;23.93;19.80;;;9.60;78.70;;;8.65;73.32;98951.00;5011059;28;20906;-72
2022/03/16 09:50:20;;;;;;;26.00;20.07;;;9.80;79.80;;;8.62;71.79;98936.03;5033539;28;20479;-71
2022/03/16 09:52:48;;;;;;;22.67;17.77;;;9.90;78.90;;;8.75;71.92;98938.16;5031773;28;20497;-70
2022/03/16 09:55:17;;;;;;;20.67;18.47;;;10.00;77.60;;;8.91;70.22;98939.03;5032004;28;20524;-71
2022/03/16 09:57:44;;;;;;;24.00;19.63;;;10.10;76.40;;;8.70;71.35;98910.88;5032293;28;20474;-71
2022/03/16 10:00:13;;;;;;;21.97;19.50;;;10.20;77.50;;;8.96;70.18;98925.84;5033407;28;20921;-71
2022/03/16 10:02:41;;;;;;;22.30;18.97;;;10.20;76.70;;;9.15;69.90;98932.56;5031705;28;20434;-70
2022/03/16 10:05:10;;;;;;;22.00;18.67;;;10.30;76.50;;;8.58;70.91;98944.69;5033200;28;20495;-71
2022/03/16 10:07:38;;;;;;;24.03;19.60;;;10.10;76.20;;;9.22;69.38;98946.16;5031909;28;20854;-70
2022/03/16 10:15:39;;;;;;;20.17;18.07;;;10.50;75.50;;;9.10;70.85;98942.22;5032952;28;20469;-70
2022/03/16 10:18:06;;;;;;;21.80;18.30;;;10.40;76.70;;;9.29;70.05;98946.25;5032707;28;20952;-70
2022/03/16 10:20:36;;;;;;;24.40;18.33;;;10.50;76.20;;;9.62;69.25;98941.31;5032488;28;20861;-71
2022/03/16 10:23:08;;;;;;;20.40;17.90;;;10.80;75.90;;;10.19;65.77;98938.91;5032576;28;20439;-72
2022/03/16 10:25:38;;;;;;;22.20;19.47;;;11.20;74.80;;;10.37;66.00;98932.25;5033065;28;20468;-71